Time;durP1;ratioP1;P1;durP2;ratioP2;P2;SDS_P1;SDS_P2;PMS_P1;PMS_P2;Temp;Humidity;BMP_temperature;BMP_pressure;BME280_temperature;BME280_humidity;BME280_pressure;Samples;Min_cycle;Max_cycle;Signal;HPM_P1;HPM_P2
2024/02/28 00:00:01;;;;;;;17.90;16.00;;;9.70;99.90;;;;;;6223205;28;20448;-62
2024/02/28 00:03:09;;;;;;;17.33;15.67;;;9.80;99.90;;;;;;6224404;28;20464;-62
2024/02/28 00:06:33;;;;;;;17.93;16.20;;;9.80;99.90;;;;;;6220149;28;20511;-63
2024/02/28 00:09:42;;;;;;;19.50;15.43;;;9.80;99.90;;;;;;6199723;28;20453;-62
2024/02/28 00:12:49;;;;;;;16.47;14.83;;;9.90;99.90;;;;;;6208634;28;20442;-62
2024/02/28 00:15:55;;;;;;;15.13;13.63;;;9.90;99.90;;;;;;6225471;28;20619;-62
2024/02/28 00:19:11;;;;;;;16.20;14.30;;;9.90;99.90;;;;;;6227242;28;20915;-62
2024/02/28 00:22:30;;;;;;;17.70;15.07;;;9.80;99.90;;;;;;6208927;28;20443;-62
2024/02/28 00:25:39;;;;;;;15.80;14.17;;;9.80;99.90;;;;;;6223797;28;20791;-61
2024/02/28 00:28:49;;;;;;;17.60;15.80;;;9.80;99.90;;;;;;6225961;28;20531;-62
2024/02/28 00:31:58;;;;;;;17.43;15.63;;;9.70;99.90;;;;;;6225464;28;20738;-63
2024/02/28 00:35:15;;;;;;;16.37;14.67;;;9.70;99.90;;;;;;6226964;28;20487;-61
2024/02/28 00:38:31;;;;;;;18.77;14.97;;;9.60;99.90;;;;;;6224509;28;20452;-62
2024/02/28 00:41:47;;;;;;;14.93;13.43;;;9.60;99.90;;;;;;6223575;28;20930;-63
2024/02/28 00:44:54;;;;;;;16.30;14.10;;;9.50;99.80;;;;;;6225581;28;20480;-63
2024/02/28 00:48:06;;;;;;;16.57;14.97;;;9.40;99.60;;;;;;6224847;28;20444;-60
2024/02/28 00:51:13;;;;;;;15.60;14.00;;;9.30;99.60;;;;;;6226604;28;20480;-63
2024/02/28 00:54:34;;;;;;;17.70;15.90;;;9.20;99.60;;;;;;6226302;28;20468;-61
2024/02/28 00:57:49;;;;;;;17.17;15.47;;;9.20;99.90;;;;;;6225036;28;20509;-60
2024/02/28 01:01:07;;;;;;;17.80;15.90;;;9.10;99.90;;;;;;6225000;28;20441;-61
2024/02/28 01:04:16;;;;;;;16.87;15.03;;;9.00;99.90;;;;;;6221717;28;20436;-61
2024/02/28 01:07:29;;;;;;;16.63;15.00;;;8.90;99.90;;;;;;6222398;28;20495;-61
2024/02/28 01:10:39;;;;;;;16.83;15.10;;;8.80;99.90;;;;;;6222566;28;20462;-61
2024/02/28 01:17:07;;;;;;;16.97;15.07;;;8.40;99.90;;;;;;6223754;28;21014;-61
2024/02/28 01:20:34;;;;;;;17.07;15.43;;;8.30;99.90;;;;;;6221761;28;21012;-61
2024/02/28 01:23:48;;;;;;;16.63;14.90;;;8.30;99.90;;;;;;6223806;28;20452;-60
2024/02/28 01:26:54;;;;;;;18.63;16.37;;;8.20;99.90;;;;;;6224463;28;20936;-60
2024/02/28 01:30:10;;;;;;;18.43;15.20;;;8.20;99.90;;;;;;6224693;28;20449;-61
2024/02/28 01:33:18;;;;;;;17.60;14.70;;;8.20;99.90;;;;;;6225261;28;20441;-61
2024/02/28 01:36:26;;;;;;;17.73;15.90;;;8.10;99.90;;;;;;6224218;28;20844;-61
2024/02/28 01:39:41;;;;;;;17.03;15.40;;;8.10;99.90;;;;;;6224763;28;20456;-60
2024/02/28 01:42:52;;;;;;;15.03;13.67;;;8.10;99.90;;;;;;6200817;28;20449;-61
2024/02/28 01:46:06;;;;;;;19.03;15.60;;;8.10;99.90;;;;;;6200651;28;20575;-60
2024/02/28 01:49:18;;;;;;;16.13;14.53;;;8.10;99.90;;;;;;6200433;28;20494;-60
2024/02/28 01:52:25;;;;;;;15.83;14.23;;;8.10;99.90;;;;;;6181547;28;20597;-61
2024/02/28 01:55:38;;;;;;;16.87;15.17;;;8.20;99.90;;;;;;6177761;28;20462;-60
2024/02/28 01:58:50;;;;;;;15.97;14.57;;;8.20;99.90;;;;;;6200122;28;20445;-60
2024/02/28 02:05:20;;;;;;;14.90;13.60;;;8.10;99.90;;;;;;6200352;28;20500;-61
2024/02/28 02:11:55;;;;;;;14.63;13.23;;;8.00;99.90;;;;;;6200291;28;20444;-60
2024/02/28 02:15:18;;;;;;;13.67;12.30;;;8.00;99.90;;;;;;6199879;28;20468;-60
2024/02/28 02:18:24;;;;;;;14.37;12.80;;;8.00;99.90;;;;;;6201081;28;20584;-60
2024/02/28 02:21:37;;;;;;;16.50;14.80;;;8.00;99.90;;;;;;6200502;28;20771;-60
2024/02/28 02:24:59;;;;;;;13.20;11.90;;;8.00;99.90;;;;;;6200505;28;20929;-60
2024/02/28 02:28:08;;;;;;;17.60;13.70;;;7.90;99.90;;;;;;6200639;28;20438;-60
2024/02/28 02:31:24;;;;;;;14.07;12.50;;;7.80;99.90;;;;;;6200106;28;20441;-60
2024/02/28 02:34:38;;;;;;;13.73;12.33;;;7.80;99.90;;;;;;6200421;28;20868;-60
2024/02/28 02:37:55;;;;;;;12.87;11.70;;;7.80;99.90;;;;;;6200049;28;20549;-60
2024/02/28 02:41:22;;;;;;;12.80;11.50;;;7.80;99.90;;;;;;6200897;28;20456;-60
2024/02/28 02:44:40;;;;;;;14.40;12.90;;;7.70;99.90;;;;;;6201930;28;20469;-62
2024/02/28 02:47:50;;;;;;;13.07;11.80;;;7.70;99.90;;;;;;6199397;28;20988;-60
2024/02/28 02:54:18;;;;;;;16.43;11.93;;;7.60;99.90;;;;;;6223997;28;20483;-61
2024/02/28 02:57:36;;;;;;;14.30;12.83;;;7.60;99.90;;;;;;6222547;28;20451;-60
2024/02/28 03:01:04;;;;;;;12.10;10.80;;;7.60;99.90;;;;;;6224355;28;20479;-60
2024/02/28 03:04:20;;;;;;;14.50;13.10;;;7.50;99.90;;;;;;6224504;28;20446;-61
2024/02/28 03:07:31;;;;;;;14.27;12.93;;;7.50;99.90;;;;;;6224145;28;20499;-60
2024/02/28 03:10:45;;;;;;;14.50;12.67;;;7.50;99.90;;;;;;6207660;28;20456;-61
2024/02/28 03:14:05;;;;;;;14.40;11.80;;;7.40;99.90;;;;;;6223244;28;20490;-60
2024/02/28 03:17:15;;;;;;;13.60;12.10;;;7.50;99.90;;;;;;6223370;28;20920;-60
2024/02/28 03:20:21;;;;;;;14.30;12.40;;;7.40;99.90;;;;;;6224251;28;20467;-60
2024/02/28 03:23:36;;;;;;;13.23;12.00;;;7.50;99.90;;;;;;6224566;28;20462;-60
2024/02/28 03:26:43;;;;;;;15.70;13.70;;;7.40;99.90;;;;;;6224142;28;20499;-60
2024/02/28 03:29:55;;;;;;;11.90;10.73;;;7.50;99.90;;;;;;6223732;28;20448;-60
2024/02/28 03:33:10;;;;;;;13.33;12.00;;;7.40;99.90;;;;;;6222647;28;20478;-60
2024/02/28 03:36:27;;;;;;;17.80;12.03;;;7.40;99.90;;;;;;6222404;28;20908;-61
2024/02/28 03:39:32;;;;;;;13.67;12.20;;;7.40;99.90;;;;;;6223283;28;20449;-59
2024/02/28 03:42:42;;;;;;;12.43;11.27;;;7.30;99.90;;;;;;6221784;28;20828;-61
2024/02/28 03:46:03;;;;;;;11.97;10.87;;;7.30;99.90;;;;;;6222974;28;20559;-60
2024/02/28 03:49:14;;;;;;;11.93;10.93;;;7.30;99.90;;;;;;6222381;28;20437;-60
2024/02/28 03:52:24;;;;;;;13.40;12.07;;;7.20;99.90;;;;;;6225748;28;20484;-60
2024/02/28 03:55:32;;;;;;;14.37;12.53;;;7.20;99.90;;;;;;6225129;28;20490;-61
2024/02/28 03:58:48;;;;;;;13.93;12.30;;;7.20;99.90;;;;;;6227164;28;20523;-60
2024/02/28 04:02:10;;;;;;;10.87;9.87;;;7.20;99.90;;;;;;6227133;28;20447;-60
2024/02/28 04:05:17;;;;;;;12.37;11.10;;;7.20;99.90;;;;;;6227046;28;20483;-61
2024/02/28 04:08:28;;;;;;;12.63;11.43;;;7.10;99.90;;;;;;6226470;28;20488;-60
2024/02/28 04:11:47;;;;;;;12.10;10.90;;;7.20;99.90;;;;;;6226263;28;20448;-60
2024/02/28 04:15:09;;;;;;;16.43;11.93;;;7.10;99.90;;;;;;6226178;28;20483;-60
2024/02/28 04:18:29;;;;;;;12.17;11.00;;;7.10;99.90;;;;;;6219057;28;20428;-60
2024/02/28 04:21:45;;;;;;;12.27;10.90;;;7.10;99.90;;;;;;6227608;28;20737;-61
2024/02/28 04:24:53;;;;;;;11.53;10.53;;;7.10;99.90;;;;;;6225997;28;20747;-61
2024/02/28 04:28:10;;;;;;;13.60;10.73;;;7.10;99.90;;;;;;6226190;28;20598;-60
2024/02/28 04:31:26;;;;;;;10.97;9.90;;;7.10;99.90;;;;;;6225480;28;20455;-61
2024/02/28 04:34:50;;;;;;;11.13;10.17;;;7.00;99.90;;;;;;6225362;28;20479;-61
2024/02/28 04:38:06;;;;;;;12.77;10.63;;;7.00;99.90;;;;;;6225659;28;20459;-61
2024/02/28 04:41:12;;;;;;;13.23;11.47;;;7.10;99.90;;;;;;6226140;28;20475;-60
2024/02/28 04:44:21;;;;;;;17.20;12.40;;;7.10;99.90;;;;;;6225462;28;20948;-60
2024/02/28 04:47:30;;;;;;;16.67;12.13;;;7.00;99.90;;;;;;6219818;28;20480;-61
2024/02/28 04:51:04;;;;;;;13.20;11.87;;;7.00;99.90;;;;;;6225079;28;20482;-61
2024/02/28 04:54:19;;;;;;;14.93;12.77;;;7.00;99.90;;;;;;6224135;28;20547;-61
2024/02/28 04:57:27;;;;;;;18.60;15.60;;;6.90;99.90;;;;;;6226208;28;20444;-60
2024/02/28 05:00:34;;;;;;;25.37;15.83;;;6.80;99.90;;;;;;6226453;28;20459;-60
2024/02/28 05:03:49;;;;;;;24.03;16.13;;;6.60;99.90;;;;;;6226382;28;20454;-61
2024/02/28 05:07:01;;;;;;;23.30;16.17;;;6.70;99.90;;;;;;6226007;28;20586;-60
2024/02/28 05:10:09;;;;;;;23.00;16.63;;;6.60;99.90;;;;;;6224808;28;20459;-61
2024/02/28 05:13:13;;;;;;;38.13;18.10;;;6.70;99.90;;;;;;6225614;28;20444;-60
2024/02/28 05:16:18;;;;;;;29.50;18.53;;;6.70;99.90;;;;;;6227346;28;20468;-61
2024/02/28 05:19:31;;;;;;;35.33;17.67;;;6.80;99.90;;;;;;6224296;28;20459;-60
2024/02/28 05:22:44;;;;;;;20.57;17.73;;;6.70;99.90;;;;;;6224995;28;20897;-60
2024/02/28 05:25:51;;;;;;;22.20;17.50;;;6.70;99.90;;;;;;6224568;28;20615;-60
2024/02/28 05:29:04;;;;;;;33.13;18.47;;;6.70;99.90;;;;;;6224857;28;20484;-61
2024/02/28 05:32:20;;;;;;;22.67;17.50;;;6.70;99.90;;;;;;6225582;28;20865;-62
2024/02/28 05:35:32;;;;;;;46.37;19.60;;;6.80;99.90;;;;;;6225380;28;20468;-61
2024/02/28 05:38:53;;;;;;;19.07;15.77;;;6.80;99.90;;;;;;6225000;28;20459;-60
2024/02/28 05:41:59;;;;;;;17.50;14.77;;;6.80;99.90;;;;;;6224500;28;20896;-60
2024/02/28 05:45:12;;;;;;;18.40;14.50;;;6.80;99.90;;;;;;6224667;28;20486;-61
2024/02/28 05:48:24;;;;;;;17.83;14.87;;;6.80;99.90;;;;;;6223650;28;20487;-60
2024/02/28 05:51:33;;;;;;;17.10;14.50;;;6.80;99.90;;;;;;6212353;28;20590;-60
2024/02/28 05:54:57;;;;;;;17.87;15.33;;;6.80;99.90;;;;;;6195684;28;20485;-60
2024/02/28 05:58:06;;;;;;;17.50;14.07;;;6.80;99.90;;;;;;6199458;28;20437;-62
2024/02/28 06:01:18;;;;;;;20.83;18.60;;;6.90;99.90;;;;;;6199680;28;20935;-61
2024/02/28 06:04:29;;;;;;;17.77;14.50;;;6.60;99.90;;;;;;6198967;28;20476;-60
2024/02/28 06:07:38;;;;;;;18.43;15.80;;;6.50;99.90;;;;;;6199681;28;20540;-60
2024/02/28 06:10:59;;;;;;;17.67;15.97;;;6.50;99.90;;;;;;6199495;28;20562;-61
2024/02/28 06:14:16;;;;;;;17.77;15.87;;;6.60;99.90;;;;;;6198009;28;20470;-61
2024/02/28 06:17:30;;;;;;;25.00;15.70;;;6.70;99.90;;;;;;6199275;28;20434;-60
2024/02/28 06:20:34;;;;;;;21.60;16.20;;;6.80;99.90;;;;;;6199797;28;20456;-61
2024/02/28 06:23:51;;;;;;;35.77;16.50;;;6.90;99.90;;;;;;6200607;28;20457;-61
2024/02/28 06:27:23;;;;;;;27.47;16.43;;;7.00;99.90;;;;;;6199428;28;20449;-61
2024/02/28 06:30:33;;;;;;;27.57;14.43;;;6.90;99.90;;;;;;6199819;28;20826;-60
2024/02/28 06:33:50;;;;;;;82.87;17.77;;;7.00;99.90;;;;;;6200406;28;20449;-61
2024/02/28 06:36:56;;;;;;;18.90;13.57;;;7.10;99.90;;;;;;6199741;28;20477;-60
2024/02/28 06:40:01;;;;;;;21.93;15.60;;;7.30;99.90;;;;;;6199083;28;20499;-62
2024/02/28 06:43:07;;;;;;;23.70;15.70;;;7.50;99.90;;;;;;6199759;28;20476;-60
2024/02/28 06:46:10;;;;;;;26.43;14.50;;;7.80;99.90;;;;;;6199913;28;20481;-61
2024/02/28 06:49:14;;;;;;;16.93;13.97;;;8.10;99.90;;;;;;6198772;28;20491;-61
2024/02/28 06:52:17;;;;;;;18.97;13.10;;;8.40;99.90;;;;;;6214627;28;20490;-60
2024/02/28 06:55:20;;;;;;;19.13;13.67;;;8.60;99.90;;;;;;6223298;28;20970;-62
2024/02/28 06:58:25;;;;;;;17.80;13.80;;;8.90;99.90;;;;;;6223336;28;20440;-61
2024/02/28 07:01:30;;;;;;;16.50;14.27;;;9.40;99.90;;;;;;6222913;28;20472;-61
2024/02/28 07:04:49;;;;;;;13.67;11.70;;;9.80;99.90;;;;;;6222350;28;20927;-60
2024/02/28 07:07:57;;;;;;;12.77;11.47;;;10.20;99.90;;;;;;6223149;28;20472;-60
2024/02/28 07:11:04;;;;;;;13.30;12.00;;;10.60;99.90;;;;;;6222207;28;20793;-61
2024/02/28 07:14:15;;;;;;;10.23;9.20;;;11.00;99.90;;;;;;6222438;28;20446;-61
2024/02/28 07:17:33;;;;;;;11.37;9.73;;;11.40;99.90;;;;;;6222409;28;20857;-61
2024/02/28 07:20:46;;;;;;;10.00;9.00;;;12.00;99.20;;;;;;6222590;28;20599;-61
2024/02/28 07:23:54;;;;;;;12.23;10.33;;;12.80;97.50;;;;;;6223520;28;20444;-61
2024/02/28 07:26:59;;;;;;;10.43;9.27;;;14.30;95.20;;;;;;6227693;28;20429;-61
2024/02/28 07:30:14;;;;;;;10.93;8.90;;;15.70;92.00;;;;;;6225002;28;20575;-61
2024/02/28 07:33:23;;;;;;;9.53;8.73;;;17.20;85.30;;;;;;6227211;28;20896;-61
2024/02/28 07:36:31;;;;;;;9.30;8.60;;;18.30;79.40;;;;;;6226949;28;20464;-62
2024/02/28 07:39:45;;;;;;;8.53;7.73;;;18.50;74.60;;;;;;6226453;28;20460;-62
2024/02/28 07:43:01;;;;;;;8.77;7.87;;;18.50;73.50;;;;;;6220129;28;20448;-62
2024/02/28 07:46:27;;;;;;;9.70;8.53;;;18.60;73.00;;;;;;6226599;28;20842;-60
2024/02/28 07:49:43;;;;;;;12.83;8.90;;;19.00;71.10;;;;;;6226737;28;20225;-61
2024/02/28 07:52:51;;;;;;;9.77;8.97;;;19.50;69.40;;;;;;6226477;28;20575;-61
2024/02/28 07:56:05;;;;;;;8.87;8.07;;;19.90;67.60;;;;;;6208615;28;20248;-61
2024/02/28 07:59:19;;;;;;;10.17;9.27;;;20.30;66.40;;;;;;6226743;28;20641;-62
2024/02/28 08:02:46;;;;;;;9.40;8.50;;;21.00;63.40;;;;;;6224353;28;20221;-61
2024/02/28 08:05:59;;;;;;;9.87;9.00;;;21.40;61.50;;;;;;6225238;28;20565;-62
2024/02/28 08:09:04;;;;;;;11.13;9.60;;;22.00;60.30;;;;;;6227422;28;20342;-61
2024/02/28 08:12:20;;;;;;;10.67;9.67;;;22.10;59.20;;;;;;6205248;28;20634;-62
2024/02/28 08:15:29;;;;;;;11.00;10.00;;;22.90;56.80;;;;;;6214943;28;20245;-62
2024/02/28 08:18:39;;;;;;;11.17;10.23;;;22.40;56.50;;;;;;6226639;28;20189;-61
2024/02/28 08:21:46;;;;;;;11.70;10.60;;;22.10;57.50;;;;;;6227388;28;20630;-60
2024/02/28 08:25:11;;;;;;;12.57;11.47;;;22.40;57.00;;;;;;6226919;28;20228;-61
2024/02/28 08:28:26;;;;;;;10.50;9.60;;;22.90;56.30;;;;;;6227580;28;20216;-62
2024/02/28 08:31:35;;;;;;;10.93;10.03;;;23.70;55.30;;;;;;6226308;28;20539;-62
2024/02/28 08:34:49;;;;;;;13.40;10.30;;;24.90;52.70;;;;;;6229086;28;20216;-62
2024/02/28 08:37:58;;;;;;;12.10;11.10;;;26.00;50.90;;;;;;6215103;28;20205;-61
2024/02/28 08:41:05;;;;;;;12.00;11.10;;;25.70;49.30;;;;;;6227444;28;20212;-62
2024/02/28 08:44:14;;;;;;;12.33;11.20;;;25.50;49.80;;;;;;6225594;28;20215;-63
2024/02/28 08:47:26;;;;;;;11.47;10.40;;;25.30;49.50;;;;;;6226852;28;20207;-62
2024/02/28 08:50:39;;;;;;;11.83;9.87;;;25.00;49.70;;;;;;6223398;28;20232;-62
2024/02/28 08:53:46;;;;;;;10.20;9.40;;;24.70;50.20;;;;;;6225965;28;20203;-62
2024/02/28 08:57:01;;;;;;;10.80;10.00;;;24.80;50.30;;;;;;6225178;28;20224;-62
2024/02/28 09:00:13;;;;;;;12.10;11.10;;;25.30;49.80;;;;;;6226205;28;20201;-62
2024/02/28 09:03:27;;;;;;;10.47;9.57;;;26.40;48.10;;;;;;6226860;28;20287;-62
2024/02/28 09:06:47;;;;;;;11.67;10.67;;;27.40;46.70;;;;;;6227186;28;20224;-61
2024/02/28 09:09:54;;;;;;;10.70;9.93;;;28.30;45.20;;;;;;6225060;28;20548;-61
2024/02/28 09:13:15;;;;;;;10.10;9.00;;;28.70;43.30;;;;;;6221474;28;20208;-62
2024/02/28 09:16:21;;;;;;;9.83;8.83;;;28.50;43.20;;;;;;6221325;28;20228;-62
